Time;durP1;ratioP1;P1;durP2;ratioP2;P2;SDS_P1;SDS_P2;PMS_P1;PMS_P2;Temp;Humidity;BMP_temperature;BMP_pressure;BME280_temperature;BME280_humidity;BME280_pressure;Samples;Min_cycle;Max_cycle;Signal;HPM_P1;HPM_P2
2021/01/26 00:00:56;;;;;;;22.33;9.25;;;4.10;99.90;;;;;;4165156;28;20079;-84
2021/01/26 00:02:56;;;;;;;23.85;9.85;;;4.10;99.90;;;;;;4146115;28;20045;-84
2021/01/26 00:04:57;;;;;;;18.70;8.98;;;4.10;99.90;;;;;;4170904;28;20215;-84
2021/01/26 00:06:57;;;;;;;16.75;8.98;;;4.00;99.90;;;;;;4161550;28;20129;-84
2021/01/26 00:08:58;;;;;;;16.50;9.02;;;4.00;99.90;;;;;;4150114;28;20035;-84
2021/01/26 00:11:02;;;;;;;23.17;10.20;;;4.00;99.90;;;;;;4165875;28;20048;-84
2021/01/26 00:13:05;;;;;;;20.00;9.65;;;4.00;99.90;;;;;;4162103;28;20117;-84
2021/01/26 00:15:06;;;;;;;23.15;10.10;;;4.00;99.90;;;;;;4130924;28;20034;-84
2021/01/26 00:17:07;;;;;;;21.30;9.50;;;4.00;99.90;;;;;;4133936;28;20038;-84
2021/01/26 00:19:09;;;;;;;18.20;8.45;;;4.00;99.90;;;;;;4162309;28;20088;-84
2021/01/26 00:21:09;;;;;;;20.50;9.73;;;4.00;99.90;;;;;;4170014;28;20033;-85
2021/01/26 00:23:14;;;;;;;23.15;10.13;;;4.00;99.90;;;;;;4159023;28;20084;-84
2021/01/26 00:25:20;;;;;;;19.67;9.23;;;4.00;99.90;;;;;;4163785;28;20025;-84
2021/01/26 00:27:21;;;;;;;25.50;10.35;;;4.00;99.90;;;;;;4145917;28;20034;-84
2021/01/26 00:29:22;;;;;;;21.77;9.48;;;4.00;99.90;;;;;;4170291;28;20017;-84
2021/01/26 00:31:23;;;;;;;23.67;9.33;;;4.00;99.90;;;;;;4179322;28;20036;-84
2021/01/26 00:33:24;;;;;;;18.67;8.45;;;4.00;99.90;;;;;;4167958;28;20038;-84
2021/01/26 00:35:28;;;;;;;17.65;8.73;;;4.00;99.90;;;;;;4178495;28;20044;-84
2021/01/26 00:37:29;;;;;;;17.77;8.52;;;4.00;99.90;;;;;;4171490;28;20397;-84
2021/01/26 00:39:30;;;;;;;18.02;8.45;;;4.00;99.90;;;;;;4161384;28;20057;-84
2021/01/26 00:41:30;;;;;;;21.27;8.55;;;3.90;99.90;;;;;;4140873;28;20034;-84
2021/01/26 00:43:31;;;;;;;17.83;8.35;;;3.90;99.90;;;;;;4142245;28;20053;-84
2021/01/26 00:45:31;;;;;;;18.75;8.57;;;3.90;99.90;;;;;;4173692;28;20029;-84
2021/01/26 00:47:32;;;;;;;16.35;8.77;;;3.90;99.90;;;;;;4167412;28;20084;-84
2021/01/26 00:49:33;;;;;;;22.98;8.90;;;3.90;99.90;;;;;;4151242;28;20045;-84
2021/01/26 00:51:33;;;;;;;20.35;8.55;;;3.90;99.90;;;;;;4178829;28;20037;-84
2021/01/26 00:53:34;;;;;;;15.35;8.35;;;3.90;99.90;;;;;;4159814;28;20041;-84
2021/01/26 00:55:35;;;;;;;14.32;7.93;;;3.90;99.90;;;;;;4169507;28;20064;-84
2021/01/26 00:57:37;;;;;;;17.95;8.32;;;3.90;99.90;;;;;;4177375;28;20029;-84
2021/01/26 00:59:38;;;;;;;32.37;9.23;;;3.90;99.90;;;;;;4158486;28;20108;-84
2021/01/26 01:01:38;;;;;;;13.35;7.30;;;3.90;99.90;;;;;;4142568;28;20288;-84
2021/01/26 01:03:39;;;;;;;15.68;7.63;;;3.90;99.90;;;;;;4155785;28;20036;-84
2021/01/26 01:05:42;;;;;;;;;;;3.90;99.90;;;;;;4153046;28;20130;-84
2021/01/26 01:07:43;;;;;;;16.13;7.47;;;3.90;99.90;;;;;;4144690;28;19932;-84
2021/01/26 01:09:44;;;;;;;18.70;7.38;;;4.00;99.90;;;;;;4153618;28;20422;-84
2021/01/26 01:11:46;;;;;;;14.20;7.10;;;3.90;99.90;;;;;;4195499;28;20037;-84
2021/01/26 01:13:46;;;;;;;17.63;6.90;;;3.90;99.90;;;;;;4159455;28;20433;-84
2021/01/26 01:15:47;;;;;;;19.38;7.78;;;4.00;99.90;;;;;;4163329;28;20030;-84
2021/01/26 01:17:49;;;;;;;17.83;7.35;;;4.00;99.90;;;;;;4151788;28;20049;-85
2021/01/26 01:19:49;;;;;;;10.75;6.40;;;3.90;99.90;;;;;;4160959;28;20104;-84
2021/01/26 01:21:50;;;;;;;18.10;6.97;;;4.00;99.90;;;;;;4144732;28;20033;-84
2021/01/26 01:23:51;;;;;;;13.90;6.20;;;4.00;99.90;;;;;;4149513;28;20188;-84
2021/01/26 01:25:59;;;;;;;11.07;6.80;;;4.00;99.90;;;;;;4167679;28;20030;-84
2021/01/26 01:27:59;;;;;;;19.30;7.05;;;4.10;99.90;;;;;;4153099;28;20521;-84
2021/01/26 01:30:00;;;;;;;13.25;6.55;;;4.10;99.90;;;;;;4178439;28;20095;-84
2021/01/26 01:32:00;;;;;;;16.23;6.80;;;4.10;99.90;;;;;;4160801;28;20036;-84
2021/01/26 01:34:01;;;;;;;14.25;6.63;;;4.10;99.90;;;;;;4152280;28;20029;-84
2021/01/26 01:36:02;;;;;;;17.83;7.07;;;4.10;99.90;;;;;;4167048;28;20055;-84
2021/01/26 01:38:04;;;;;;;14.95;6.68;;;4.10;99.90;;;;;;4153839;28;20044;-84
2021/01/26 01:40:08;;;;;;;16.05;6.18;;;4.10;99.90;;;;;;4174121;28;20510;-84
2021/01/26 01:42:10;;;;;;;18.85;7.65;;;4.10;99.90;;;;;;4145151;28;20395;-84
2021/01/26 01:44:10;;;;;;;15.30;6.03;;;4.10;99.90;;;;;;4146366;28;20034;-84
2021/01/26 01:46:19;;;;;;;10.77;5.65;;;4.10;99.90;;;;;;4164959;28;20093;-84
2021/01/26 01:48:28;;;;;;;14.07;5.60;;;4.10;99.90;;;;;;4153292;28;20056;-84
2021/01/26 01:50:39;;;;;;;15.20;5.13;;;4.10;99.90;;;;;;4189488;28;20061;-84
2021/01/26 01:52:41;;;;;;;10.40;5.57;;;4.10;99.90;;;;;;4148564;28;20025;-84
2021/01/26 01:54:47;;;;;;;14.68;5.75;;;4.00;99.90;;;;;;4166464;28;20546;-84
2021/01/26 01:56:59;;;;;;;10.07;5.72;;;4.00;99.90;;;;;;4184580;28;20029;-84
2021/01/26 01:59:08;;;;;;;14.93;5.60;;;4.00;99.90;;;;;;4155104;28;20488;-84
2021/01/26 02:01:12;;;;;;;11.80;5.10;;;4.00;99.90;;;;;;4143138;28;20377;-84
2021/01/26 02:03:19;;;;;;;11.68;5.50;;;4.10;99.90;;;;;;4123633;28;20052;-84
2021/01/26 02:05:21;;;;;;;7.72;5.00;;;4.00;99.90;;;;;;4157132;28;20080;-83
2021/01/26 02:07:32;;;;;;;10.73;5.70;;;4.10;99.90;;;;;;4150242;28;20030;-84
2021/01/26 02:09:36;;;;;;;12.35;5.68;;;4.10;99.90;;;;;;4165441;28;20071;-84
2021/01/26 02:11:37;;;;;;;18.55;5.45;;;4.10;99.90;;;;;;4163593;28;20086;-84
2021/01/26 02:13:38;;;;;;;11.57;5.15;;;4.10;99.90;;;;;;4158514;28;20026;-84
2021/01/26 02:15:38;;;;;;;15.32;5.30;;;4.20;99.90;;;;;;4165524;28;20469;-83
2021/01/26 02:18:07;;;;;;;11.95;5.55;;;4.20;99.90;;;;;;4164862;28;20037;-84
2021/01/26 02:20:58;;;;;;;9.80;4.65;;;4.20;99.90;;;;;;4163196;28;20081;-84
2021/01/26 02:23:24;;;;;;;12.85;4.47;;;4.20;99.90;;;;;;4160407;28;20184;-84
2021/01/26 02:26:08;;;;;;;15.80;4.80;;;4.30;99.90;;;;;;4173870;28;20041;-84
2021/01/26 02:28:24;;;;;;;14.13;5.00;;;4.20;99.90;;;;;;4149080;28;20034;-84
2021/01/26 02:30:41;;;;;;;13.20;4.68;;;4.20;99.90;;;;;;4178927;28;20037;-84
2021/01/26 02:33:11;;;;;;;15.25;5.25;;;4.30;99.90;;;;;;4162175;28;20032;-84
2021/01/26 02:35:20;;;;;;;14.80;4.82;;;4.20;99.90;;;;;;4179127;28;20120;-84
2021/01/26 02:37:40;;;;;;;16.05;4.70;;;4.30;99.90;;;;;;4165478;28;20057;-84
2021/01/26 02:40:23;;;;;;;9.80;3.70;;;4.30;99.90;;;;;;4162770;28;20033;-84
2021/01/26 02:42:37;;;;;;;19.27;4.90;;;4.20;99.90;;;;;;4131498;28;20489;-84
2021/01/26 02:44:53;;;;;;;14.50;4.20;;;4.30;99.90;;;;;;4139084;28;20526;-84
2021/01/26 02:47:36;;;;;;;17.40;4.50;;;4.20;99.90;;;;;;4163456;28;20030;-84
2021/01/26 02:49:45;;;;;;;17.83;4.17;;;4.30;99.90;;;;;;4146623;28;20038;-84
2021/01/26 02:51:54;;;;;;;14.75;4.07;;;4.30;99.90;;;;;;4164251;28;20290;-84
2021/01/26 02:54:25;;;;;;;15.10;4.47;;;4.20;99.90;;;;;;4147063;28;20414;-84
2021/01/26 02:56:55;;;;;;;13.77;3.88;;;4.30;99.90;;;;;;4162729;28;20478;-84
2021/01/26 02:59:03;;;;;;;15.10;3.97;;;4.20;99.90;;;;;;4159796;28;20497;-84
2021/01/26 03:01:05;;;;;;;12.18;3.60;;;4.30;99.90;;;;;;4159353;28;20119;-84
2021/01/26 03:03:13;;;;;;;11.52;3.63;;;4.20;99.90;;;;;;4164893;28;20101;-84
2021/01/26 03:05:23;;;;;;;11.43;3.55;;;4.30;99.90;;;;;;4166765;28;20029;-84
2021/01/26 03:07:29;;;;;;;15.20;4.22;;;4.30;99.90;;;;;;4165335;28;20367;-84
2021/01/26 03:09:35;;;;;;;15.20;3.85;;;4.30;99.90;;;;;;4163279;28;20084;-84
2021/01/26 03:11:38;;;;;;;11.23;3.55;;;4.20;99.90;;;;;;4147634;28;20045;-84
2021/01/26 03:13:45;;;;;;;11.30;3.85;;;4.20;99.90;;;;;;4147859;28;20148;-84
2021/01/26 03:15:56;;;;;;;9.70;3.50;;;4.30;99.90;;;;;;4146905;28;20014;-84
2021/01/26 03:18:00;;;;;;;13.80;3.85;;;4.20;99.90;;;;;;4180793;28;20037;-84
2021/01/26 03:20:13;;;;;;;12.40;4.05;;;4.20;99.90;;;;;;4145625;28;20121;-84
2021/01/26 03:22:17;;;;;;;10.13;3.72;;;4.20;99.90;;;;;;4146785;28;20046;-84
2021/01/26 03:24:25;;;;;;;17.05;3.70;;;4.20;99.90;;;;;;4168058;28;20310;-84
2021/01/26 03:26:27;;;;;;;13.30;3.60;;;4.20;99.90;;;;;;4164031;28;20099;-84
2021/01/26 03:28:29;;;;;;;10.00;3.75;;;4.20;99.90;;;;;;4148769;28;20129;-84
2021/01/26 03:30:32;;;;;;;;;;;4.20;99.90;;;;;;4163755;28;20029;-84
2021/01/26 03:32:37;;;;;;;11.52;3.17;;;4.20;99.90;;;;;;4166893;28;19998;-84
2021/01/26 03:34:38;;;;;;;19.60;4.07;;;4.20;99.90;;;;;;4165097;28;20612;-84
2021/01/26 03:36:40;;;;;;;13.23;3.75;;;4.20;99.90;;;;;;4167894;28;20033;-84
2021/01/26 03:38:44;;;;;;;11.32;3.55;;;4.20;99.90;;;;;;4162849;28;20044;-84
2021/01/26 03:40:45;;;;;;;10.50;3.72;;;4.20;99.90;;;;;;4162014;28;20040;-84
2021/01/26 03:42:46;;;;;;;14.20;3.50;;;4.20;99.90;;;;;;4142298;28;20065;-84
2021/01/26 03:44:48;;;;;;;12.25;3.78;;;4.20;99.90;;;;;;4147169;28;20080;-84
2021/01/26 03:46:49;;;;;;;14.43;3.10;;;4.20;99.90;;;;;;4167259;28;20035;-84
2021/01/26 03:49:25;;;;;;;12.10;3.30;;;4.20;99.90;;;;;;4149241;28;20268;-84
2021/01/26 03:51:50;;;;;;;10.20;3.35;;;4.20;99.90;;;;;;4161565;28;20355;-84
2021/01/26 03:54:33;;;;;;;9.77;2.72;;;4.10;99.90;;;;;;4161141;28;20021;-84
2021/01/26 03:56:43;;;;;;;;;;;4.20;99.90;;;;;;4161763;28;20104;-84
2021/01/26 03:58:49;;;;;;;7.97;2.65;;;4.10;99.90;;;;;;4163180;28;19908;-85
2021/01/26 04:01:02;;;;;;;8.77;2.60;;;4.10;99.90;;;;;;4164365;28;20539;-84
2021/01/26 04:03:21;;;;;;;5.57;2.45;;;4.10;99.90;;;;;;4155932;28;20116;-84
2021/01/26 04:05:36;;;;;;;6.38;2.35;;;4.10;99.90;;;;;;4165011;28;20064;-84
2021/01/26 04:07:44;;;;;;;9.02;2.30;;;4.00;99.90;;;;;;4162324;28;20045;-84
2021/01/26 04:09:58;;;;;;;5.90;2.80;;;4.10;99.90;;;;;;4162604;28;20029;-84
2021/01/26 04:12:10;;;;;;;9.82;2.60;;;4.00;99.90;;;;;;4148785;28;20055;-84
2021/01/26 04:14:18;;;;;;;7.78;2.80;;;4.00;99.90;;;;;;4174505;28;20045;-84
2021/01/26 04:16:22;;;;;;;10.57;2.80;;;4.10;99.90;;;;;;4146874;28;20528;-84
2021/01/26 04:18:37;;;;;;;14.43;3.42;;;4.00;99.90;;;;;;4176291;28;20040;-84
2021/01/26 04:20:39;;;;;;;12.23;3.17;;;4.00;99.90;;;;;;4152192;28;21844;-84
2021/01/26 04:22:41;;;;;;;15.38;3.05;;;4.00;99.90;;;;;;4153110;28;20452;-84
2021/01/26 04:24:41;;;;;;;20.42;4.15;;;4.00;99.90;;;;;;4137774;28;20108;-84
2021/01/26 04:26:44;;;;;;;10.45;2.78;;;4.00;99.90;;;;;;4161729;28;20262;-84
2021/01/26 04:28:47;;;;;;;10.63;2.58;;;4.10;99.90;;;;;;4146571;28;20034;-84
2021/01/26 04:30:48;;;;;;;16.60;3.15;;;4.10;99.90;;;;;;4146904;28;20034;-84
2021/01/26 04:33:00;;;;;;;10.98;2.78;;;4.10;99.90;;;;;;4154184;28;20080;-84
2021/01/26 04:35:01;;;;;;;8.65;3.03;;;4.10;99.90;;;;;;4142393;28;20054;-84
2021/01/26 04:37:02;;;;;;;8.63;2.13;;;4.10;99.90;;;;;;4170727;28;20029;-84
2021/01/26 04:39:03;;;;;;;7.65;2.13;;;4.10;99.90;;;;;;4175392;28;20094;-84
2021/01/26 04:41:11;;;;;;;10.05;2.42;;;4.10;99.90;;;;;;4171173;28;20401;-84
2021/01/26 04:43:34;;;;;;;10.80;2.20;;;4.10;99.90;;;;;;4167063;28;20478;-84
2021/01/26 04:45:52;;;;;;;9.00;2.90;;;4.10;99.90;;;;;;4134526;28;20030;-84
2021/01/26 04:47:58;;;;;;;10.57;2.25;;;4.10;99.90;;;;;;4170407;28;20038;-84
2021/01/26 04:50:25;;;;;;;7.18;2.15;;;4.10;99.90;;;;;;4169137;28;20033;-84
2021/01/26 04:52:50;;;;;;;7.63;2.03;;;4.10;99.90;;;;;;4177234;28;20055;-84
2021/01/26 04:55:10;;;;;;;10.45;2.17;;;4.10;99.90;;;;;;4156786;28;20029;-84
2021/01/26 04:57:29;;;;;;;9.82;2.40;;;4.10;99.90;;;;;;4150374;28;20101;-84
2021/01/26 04:59:52;;;;;;;12.95;3.10;;;4.10;99.90;;;;;;4162265;28;20091;-84
2021/01/26 05:02:09;;;;;;;;;;;4.10;99.90;;;;;;4160611;28;20041;-84
2021/01/26 05:04:29;;;;;;;6.53;2.38;;;4.10;99.90;;;;;;4170970;28;20417;-84
2021/01/26 05:07:10;;;;;;;6.38;2.42;;;4.10;99.90;;;;;;4162763;28;20037;-84
2021/01/26 05:09:16;;;;;;;5.10;2.40;;;4.10;99.90;;;;;;4165225;28;20030;-84
2021/01/26 05:11:26;;;;;;;10.63;2.83;;;4.10;99.90;;;;;;4146159;28;20041;-84
2021/01/26 05:13:37;;;;;;;9.80;2.60;;;4.10;99.90;;;;;;4171143;28;20034;-84
2021/01/26 05:15:46;;;;;;;9.90;3.22;;;4.10;99.90;;;;;;4161478;28;20029;-84
2021/01/26 05:17:56;;;;;;;11.30;2.75;;;4.10;99.90;;;;;;4144661;28;20092;-85
2021/01/26 05:20:20;;;;;;;10.18;2.55;;;4.10;99.90;;;;;;4156276;28;20042;-84
2021/01/26 05:22:36;;;;;;;9.50;3.03;;;4.20;99.90;;;;;;4162592;28;20037;-84
2021/01/26 05:25:00;;;;;;;8.70;2.72;;;4.20;99.90;;;;;;4172927;28;20116;-84
2021/01/26 05:27:01;;;;;;;9.88;2.78;;;4.20;99.90;;;;;;4152045;28;20072;-84
2021/01/26 05:29:02;;;;;;;14.82;3.90;;;4.20;99.90;;;;;;4170650;28;20044;-84
2021/01/26 05:31:12;;;;;;;14.90;3.55;;;4.20;99.90;;;;;;4160992;28;20053;-84
2021/01/26 05:33:14;;;;;;;11.32;3.22;;;4.20;99.90;;;;;;4165935;28;20036;-84
2021/01/26 05:35:17;;;;;;;21.38;3.50;;;4.20;99.90;;;;;;4166379;28;20037;-84
2021/01/26 05:37:19;;;;;;;10.23;3.35;;;4.20;99.90;;;;;;4145916;28;20100;-84
2021/01/26 05:39:36;;;;;;;11.73;2.70;;;4.20;99.90;;;;;;4192954;28;20051;-84
2021/01/26 05:41:37;;;;;;;12.25;3.42;;;4.20;99.90;;;;;;4158443;28;20065;-84
2021/01/26 05:43:39;;;;;;;14.48;3.70;;;4.20;99.90;;;;;;4153150;28;20039;-84
2021/01/26 05:45:44;;;;;;;17.83;3.50;;;4.20;99.90;;;;;;4161912;28;20057;-84
2021/01/26 05:47:45;;;;;;;14.07;3.75;;;4.20;99.90;;;;;;4166174;28;20036;-84
2021/01/26 05:49:45;;;;;;;13.43;3.38;;;4.20;99.90;;;;;;4173275;28;20029;-84
2021/01/26 05:51:53;;;;;;;11.98;3.78;;;4.20;99.90;;;;;;4160652;28;20605;-84
2021/01/26 05:54:04;;;;;;;10.70;2.97;;;4.20;99.90;;;;;;4163179;28;20442;-84
2021/01/26 05:56:13;;;;;;;12.98;2.90;;;4.20;99.90;;;;;;4158439;28;20029;-84
2021/01/26 05:58:24;;;;;;;9.35;2.70;;;4.30;99.90;;;;;;4161056;28;20034;-84
2021/01/26 06:00:28;;;;;;;15.52;3.60;;;4.30;99.90;;;;;;4160758;28;20025;-84
2021/01/26 06:02:28;;;;;;;11.32;2.90;;;4.30;99.90;;;;;;4169547;28;20056;-84
2021/01/26 06:04:29;;;;;;;12.88;2.80;;;4.30;99.90;;;;;;4145188;28;20030;-84
2021/01/26 06:06:30;;;;;;;15.05;3.20;;;4.40;99.90;;;;;;4162282;28;20100;-85
2021/01/26 06:08:49;;;;;;;9.25;2.80;;;4.40;99.90;;;;;;4145225;28;20045;-84
2021/01/26 06:10:49;;;;;;;12.52;3.17;;;4.40;99.90;;;;;;4157497;28;20099;-84
2021/01/26 06:12:54;;;;;;;8.13;3.38;;;4.40;99.90;;;;;;4130821;28;20124;-84
2021/01/26 06:14:54;;;;;;;12.52;3.38;;;4.40;99.90;;;;;;4140350;28;20186;-84
2021/01/26 06:17:04;;;;;;;13.15;3.17;;;4.40;99.90;;;;;;4162392;28;20049;-84
2021/01/26 06:19:06;;;;;;;12.32;3.17;;;4.40;99.90;;;;;;4143137;28;20064;-84
2021/01/26 06:21:11;;;;;;;20.83;3.50;;;4.40;99.90;;;;;;4145764;28;20106;-85
2021/01/26 06:23:26;;;;;;;14.05;3.08;;;4.40;99.90;;;;;;4153244;28;20441;-84
2021/01/26 06:25:30;;;;;;;17.38;3.58;;;4.40;99.90;;;;;;4150758;28;20041;-84
2021/01/26 06:27:40;;;;;;;17.48;3.90;;;4.40;99.90;;;;;;4153960;28;20664;-84
2021/01/26 06:30:08;;;;;;;8.88;2.72;;;4.40;99.90;;;;;;4157350;28;20030;-84
2021/01/26 06:32:26;;;;;;;12.52;2.75;;;4.40;99.90;;;;;;4150511;28;20087;-84
2021/01/26 06:34:56;;;;;;;9.95;2.53;;;4.40;99.90;;;;;;4143706;28;20573;-84
2021/01/26 06:37:04;;;;;;;10.23;2.40;;;4.40;99.90;;;;;;4147102;28;20030;-84
2021/01/26 06:39:23;;;;;;;6.60;2.20;;;4.40;99.90;;;;;;4164160;28;20075;-84
2021/01/26 06:41:57;;;;;;;7.25;2.03;;;4.30;99.90;;;;;;4161359;28;20025;-84
2021/01/26 06:44:12;;;;;;;4.82;2.05;;;4.30;99.90;;;;;;4160533;28;20080;-84
2021/01/26 06:46:48;;;;;;;7.55;2.00;;;4.30;99.90;;;;;;4151724;28;20524;-84
2021/01/26 06:49:25;;;;;;;5.78;2.20;;;4.30;99.90;;;;;;4155984;28;20033;-84
2021/01/26 06:51:59;;;;;;;7.70;2.03;;;4.30;99.90;;;;;;4177663;28;20204;-84
2021/01/26 06:54:25;;;;;;;7.82;2.50;;;4.30;99.90;;;;;;4156077;28;20414;-84
2021/01/26 06:56:55;;;;;;;6.53;2.40;;;4.30;99.90;;;;;;4148146;28;20108;-84
2021/01/26 06:59:20;;;;;;;7.75;2.78;;;4.30;99.90;;;;;;4151049;28;20053;-84
2021/01/26 07:01:46;;;;;;;5.78;2.55;;;4.30;99.90;;;;;;4169072;28;20109;-84
2021/01/26 07:04:13;;;;;;;12.35;2.63;;;4.30;99.90;;;;;;4166768;28;20481;-84
2021/01/26 07:06:47;;;;;;;14.68;3.35;;;4.30;99.90;;;;;;4156060;28;20329;-84
2021/01/26 07:09:06;;;;;;;11.18;2.92;;;4.40;99.90;;;;;;4154364;28;20045;-84
2021/01/26 07:11:25;;;;;;;6.80;2.58;;;4.30;99.90;;;;;;4147576;28;20429;-84
2021/01/26 07:13:39;;;;;;;18.92;3.72;;;4.30;99.90;;;;;;4188683;28;20044;-84
2021/01/26 07:15:58;;;;;;;11.95;3.10;;;4.40;99.90;;;;;;4159542;28;20098;-84
2021/01/26 07:18:50;;;;;;;12.00;3.30;;;4.40;99.90;;;;;;4151916;28;20037;-84
2021/01/26 07:21:05;;;;;;;10.23;2.97;;;4.40;99.90;;;;;;4110824;28;20031;-83
2021/01/26 07:23:11;;;;;;;10.40;3.47;;;4.40;99.90;;;;;;4125724;28;20042;-83
2021/01/26 07:25:41;;;;;;;11.98;3.33;;;4.40;99.90;;;;;;4134071;28;20160;-84
2021/01/26 07:27:53;;;;;;;13.35;3.30;;;4.40;99.90;;;;;;4161086;28;20269;-84
2021/01/26 07:30:31;;;;;;;11.38;3.60;;;4.40;99.90;;;;;;4176310;28;20021;-84
2021/01/26 07:32:44;;;;;;;13.13;3.17;;;4.40;99.90;;;;;;4145374;28;20093;-84
2021/01/26 07:35:18;;;;;;;13.13;3.55;;;4.40;99.90;;;;;;4160689;28;20444;-84
2021/01/26 07:37:23;;;;;;;14.35;3.60;;;4.40;99.90;;;;;;4166371;28;20505;-84
2021/01/26 07:39:36;;;;;;;8.07;2.92;;;4.40;99.90;;;;;;4148349;28;20517;-85
2021/01/26 07:41:41;;;;;;;10.57;3.42;;;4.40;99.90;;;;;;4183468;28;20179;-84
2021/01/26 07:43:58;;;;;;;11.05;2.90;;;4.40;99.90;;;;;;4135567;28;20045;-84
2021/01/26 07:46:07;;;;;;;12.07;3.00;;;4.40;99.90;;;;;;4146599;28;20547;-84
2021/01/26 07:48:07;;;;;;;8.88;2.90;;;4.50;99.90;;;;;;4168145;28;20033;-84
2021/01/26 07:50:14;;;;;;;12.38;3.22;;;4.40;99.90;;;;;;4161298;28;20044;-84
2021/01/26 07:52:18;;;;;;;6.90;2.78;;;4.40;99.90;;;;;;4145093;28;20026;-84
2021/01/26 07:54:41;;;;;;;15.75;3.58;;;4.50;99.90;;;;;;4158894;28;20033;-84
2021/01/26 07:56:42;;;;;;;11.20;3.00;;;4.40;99.90;;;;;;4156213;28;20197;-84
2021/01/26 07:58:45;;;;;;;9.82;2.92;;;4.50;99.90;;;;;;4149470;28;20030;-84
2021/01/26 08:00:50;;;;;;;13.20;3.45;;;4.40;99.90;;;;;;4171993;28;20173;-84
2021/01/26 08:02:57;;;;;;;11.80;3.63;;;4.50;99.90;;;;;;4158510;28;20138;-84
2021/01/26 08:04:57;;;;;;;14.68;3.10;;;4.50;99.90;;;;;;4144041;28;20061;-84
2021/01/26 08:07:01;;;;;;;16.35;3.45;;;4.50;99.90;;;;;;4157928;28;20144;-84
2021/01/26 08:09:36;;;;;;;8.85;3.13;;;4.50;99.90;;;;;;4161656;28;20033;-84
2021/01/26 08:11:56;;;;;;;9.18;2.92;;;4.40;99.90;;;;;;4141972;28;20057;-84
2021/01/26 08:14:06;;;;;;;12.80;3.33;;;4.50;99.90;;;;;;4155442;28;20560;-84
2021/01/26 08:16:15;;;;;;;12.35;3.17;;;4.50;99.90;;;;;;4146292;28;20080;-84
2021/01/26 08:18:18;;;;;;;12.25;3.72;;;4.50;99.90;;;;;;4151882;28;20104;-84
2021/01/26 08:20:40;;;;;;;14.50;4.10;;;4.50;99.90;;;;;;4149240;28;20030;-85
2021/01/26 08:23:01;;;;;;;10.13;2.92;;;4.50;99.90;;;;;;4146517;28;20088;-84
2021/01/26 08:25:05;;;;;;;11.55;2.72;;;4.50;99.90;;;;;;4179400;28;20028;-84
2021/01/26 08:27:49;;;;;;;10.73;3.42;;;4.50;99.90;;;;;;4161425;28;20031;-84
2021/01/26 08:30:03;;;;;;;12.43;3.42;;;4.50;99.90;;;;;;4176832;28;20476;-86
2021/01/26 08:32:23;;;;;;;12.40;3.45;;;4.50;99.90;;;;;;4162992;28;20053;-84
2021/01/26 08:34:23;;;;;;;12.98;3.25;;;4.60;99.90;;;;;;4164521;28;20034;-84
2021/01/26 08:36:35;;;;;;;11.60;3.30;;;4.50;99.90;;;;;;4146918;28;20172;-85
2021/01/26 08:38:57;;;;;;;11.88;3.40;;;4.60;99.90;;;;;;4162808;28;20129;-84
2021/01/26 08:41:03;;;;;;;14.48;3.83;;;4.50;99.90;;;;;;4152705;28;20044;-84
2021/01/26 08:43:05;;;;;;;10.73;3.42;;;4.50;99.90;;;;;;4148787;28;20041;-84
2021/01/26 08:45:15;;;;;;;13.60;3.35;;;4.50;99.90;;;;;;4161630;28;20030;-84
2021/01/26 08:47:43;;;;;;;12.40;3.30;;;4.50;99.90;;;;;;4146698;28;20065;-84
2021/01/26 08:49:45;;;;;;;10.77;2.95;;;4.50;99.90;;;;;;4155773;28;20061;-84
2021/01/26 08:51:47;;;;;;;14.30;3.40;;;4.60;99.90;;;;;;4182722;28;20040;-84
2021/01/26 08:53:52;;;;;;;9.15;2.85;;;4.60;99.90;;;;;;4147390;28;20106;-84
2021/01/26 08:55:59;;;;;;;6.55;2.72;;;4.60;99.90;;;;;;4170605;28;20049;-83
2021/01/26 08:58:02;;;;;;;11.90;2.90;;;4.60;99.90;;;;;;4151813;28;20029;-83
2021/01/26 09:00:14;;;;;;;9.50;2.88;;;4.60;99.90;;;;;;4169821;28;20056;-83
2021/01/26 09:02:34;;;;;;;10.32;3.42;;;4.60;99.90;;;;;;4160353;28;20107;-83
2021/01/26 09:04:36;;;;;;;13.57;3.55;;;4.60;99.90;;;;;;4153051;28;20041;-83
2021/01/26 09:06:40;;;;;;;9.95;3.25;;;4.70;99.90;;;;;;4147009;28;20437;-83
2021/01/26 09:08:42;;;;;;;11.70;3.60;;;4.70;99.90;;;;;;4141329;28;20027;-83
2021/01/26 09:10:53;;;;;;;12.03;3.60;;;4.70;99.90;;;;;;4160432;28;20029;-83
2021/01/26 09:13:20;;;;;;;;;;;4.70;99.90;;;;;;4162249;28;20452;-83
2021/01/26 09:15:21;;;;;;;7.20;3.10;;;4.70;99.90;;;;;;4171015;28;20335;-83
2021/01/26 09:17:35;;;;;;;9.13;3.15;;;4.70;99.90;;;;;;4164423;28;20037;-83
2021/01/26 09:20:14;;;;;;;10.48;2.97;;;4.70;99.90;;;;;;4160548;28;20579;-83
2021/01/26 09:22:29;;;;;;;10.32;3.30;;;4.80;99.90;;;;;;4161269;28;20035;-83
2021/01/26 09:24:39;;;;;;;11.20;3.63;;;4.70;99.90;;;;;;4150592;28;20031;-83
2021/01/26 09:26:40;;;;;;;9.75;3.15;;;4.70;99.90;;;;;;4149301;28;20526;-83
2021/01/26 09:28:47;;;;;;;11.60;3.65;;;4.80;99.90;;;;;;4141306;28;20050;-84
2021/01/26 09:30:56;;;;;;;13.75;3.80;;;4.80;99.90;;;;;;4147210;28;20034;-84
2021/01/26 09:33:19;;;;;;;11.18;3.50;;;4.90;99.90;;;;;;4181297;28;20032;-83
2021/01/26 09:35:38;;;;;;;9.80;3.75;;;5.00;99.90;;;;;;4158760;28;20030;-83
2021/01/26 09:38:03;;;;;;;9.10;3.50;;;5.00;99.90;;;;;;4166195;28;20056;-83
2021/01/26 09:40:10;;;;;;;11.45;4.40;;;5.00;99.90;;;;;;4168011;28;20479;-83
2021/01/26 09:42:22;;;;;;;7.95;3.00;;;5.10;99.90;;;;;;4165665;28;20046;-83
2021/01/26 09:44:28;;;;;;;9.73;3.30;;;5.10;99.90;;;;;;4142897;28;20038;-83
2021/01/26 09:46:40;;;;;;;19.30;4.40;;;5.10;99.90;;;;;;4162319;28;20053;-83
2021/01/26 09:48:51;;;;;;;10.95;3.55;;;5.10;99.90;;;;;;4166311;28;20029;-83
2021/01/26 09:50:52;;;;;;;12.18;3.45;;;5.00;99.90;;;;;;4172431;28;20044;-83
2021/01/26 09:53:00;;;;;;;9.52;3.55;;;5.00;99.90;;;;;;4149239;28;20026;-83
2021/01/26 09:55:05;;;;;;;9.23;3.13;;;5.00;99.90;;;;;;4156015;28;20467;-83
2021/01/26 09:57:18;;;;;;;13.43;4.00;;;5.00;99.90;;;;;;4145617;28;20156;-83
2021/01/26 09:59:36;;;;;;;;;;;5.00;99.90;;;;;;4163358;28;20021;-83
2021/01/26 10:01:40;;;;;;;16.25;4.40;;;5.00;99.90;;;;;;4145506;28;19917;-83
2021/01/26 10:03:58;;;;;;;9.77;3.55;;;5.00;99.90;;;;;;4164389;28;20551;-84
2021/01/26 10:06:01;;;;;;;13.35;4.05;;;5.10;99.90;;;;;;4148610;28;20030;-84
2021/01/26 10:08:12;;;;;;;12.43;3.97;;;5.10;99.90;;;;;;4153177;28;20180;-83
2021/01/26 10:10:27;;;;;;;7.43;3.40;;;5.10;99.90;;;;;;4172537;28;20025;-83
2021/01/26 10:12:37;;;;;;;12.73;3.75;;;5.10;99.90;;;;;;4168197;28;20421;-83
2021/01/26 10:14:37;;;;;;;12.25;3.25;;;5.10;99.90;;;;;;4149179;28;20056;-83
2021/01/26 10:16:40;;;;;;;14.55;3.95;;;5.10;99.90;;;;;;4149082;28;20138;-83
2021/01/26 10:18:47;;;;;;;;;;;5.10;99.90;;;;;;4166016;28;20378;-84
2021/01/26 10:21:06;;;;;;;15.55;3.58;;;5.10;99.90;;;;;;4143309;28;19909;-83
2021/01/26 10:23:36;;;;;;;13.73;3.90;;;5.20;99.90;;;;;;4165795;28;20425;-83
2021/01/26 10:25:46;;;;;;;12.95;4.53;;;5.10;99.90;;;;;;4167721;28;20034;-84
2021/01/26 10:27:47;;;;;;;10.13;3.92;;;5.20;99.90;;;;;;4170988;28;20197;-84
2021/01/26 10:30:08;;;;;;;14.73;4.20;;;5.20;99.90;;;;;;4172464;28;20650;-83
2021/01/26 10:32:38;;;;;;;17.38;4.18;;;5.20;99.90;;;;;;4165604;28;21848;-83
2021/01/26 10:34:41;;;;;;;12.93;3.15;;;5.10;99.90;;;;;;4141744;28;20543;-84
2021/01/26 10:36:43;;;;;;;14.30;3.70;;;5.20;99.90;;;;;;4170401;28;20033;-84
2021/01/26 10:38:46;;;;;;;;;;;5.20;99.90;;;;;;4139824;28;20038;-84
2021/01/26 10:41:32;;;;;;;11.10;3.85;;;5.30;99.90;;;;;;4163140;28;20088;-84
2021/01/26 10:43:32;;;;;;;11.40;3.72;;;5.30;99.90;;;;;;4164306;28;20033;-83
2021/01/26 10:45:45;;;;;;;7.15;3.35;;;5.30;99.90;;;;;;4167422;28;20029;-83
2021/01/26 10:47:46;;;;;;;10.10;3.75;;;5.40;99.90;;;;;;4160655;28;20037;-83
2021/01/26 10:49:59;;;;;;;8.65;3.55;;;5.30;99.90;;;;;;4148294;28;20520;-83
2021/01/26 10:52:07;;;;;;;15.80;4.47;;;5.40;99.90;;;;;;4150580;28;20061;-83
2021/01/26 10:54:16;;;;;;;14.32;3.80;;;5.40;99.90;;;;;;4149953;28;20025;-83
2021/01/26 10:56:23;;;;;;;15.07;3.75;;;5.40;99.90;;;;;;4180226;28;20028;-84
2021/01/26 10:58:24;;;;;;;7.82;3.10;;;5.40;99.90;;;;;;4156194;28;21225;-83
2021/01/26 11:00:30;;;;;;;8.20;3.03;;;5.40;99.90;;;;;;4162925;28;20078;-83
2021/01/26 11:02:31;;;;;;;16.63;3.47;;;5.50;99.90;;;;;;4173282;28;20048;-83
2021/01/26 11:04:38;;;;;;;8.80;3.47;;;5.50;99.90;;;;;;4163346;28;20029;-84
2021/01/26 11:06:47;;;;;;;11.73;3.90;;;5.50;99.90;;;;;;4139138;28;20437;-83
2021/01/26 11:08:48;;;;;;;12.40;3.50;;;5.60;99.90;;;;;;4162915;28;20516;-83
2021/01/26 11:10:49;;;;;;;9.02;3.22;;;5.60;99.90;;;;;;4164856;28;20036;-83
2021/01/26 11:12:50;;;;;;;9.27;3.30;;;5.60;99.90;;;;;;4147901;28;20034;-83
2021/01/26 11:14:59;;;;;;;6.20;3.47;;;5.60;99.90;;;;;;4149940;28;20049;-83
2021/01/26 11:17:00;;;;;;;7.90;2.88;;;5.60;99.90;;;;;;4166132;28;20037;-83
2021/01/26 11:19:04;;;;;;;8.48;2.92;;;5.60;99.90;;;;;;4181722;28;20098;-83
2021/01/26 11:21:11;;;;;;;7.30;2.95;;;5.60;99.90;;;;;;4167310;28;20143;-83